Wetterdaten: Woche 09.04.18 - 15.04.18 (KW15)
Datum Zeit Temp. A. Feuchte A. Luftdruck Regen Wind Richtung Taupunkt Windchill Windben
09.04.2018 00:00 13,5 C 60 % 1009,1 hPa 0,0 l/m 0,0 km/h N 5,9 C 13,5 C 0,4 km/h
09.04.2018 01:00 12,8 C 61 % 1008,7 hPa 0,0 l/m 0,4 km/h N 5,4 C 12,8 C 4,4 km/h
09.04.2018 02:00 13,7 C 56 % 1008,2 hPa 0,0 l/m 0,6 km/h N 5,1 C 13,7 C 9,3 km/h
09.04.2018 03:00 13,5 C 53 % 1007,9 hPa 0,0 l/m 0,1 km/h N 4,2 C 13,5 C 2,8 km/h
09.04.2018 04:00 11,9 C 57 % 1007,8 hPa 0,0 l/m 0,2 km/h N 3,5 C 11,9 C 3,2 km/h
09.04.2018 05:00 10,5 C 59 % 1007,7 hPa 0,0 l/m 0,1 km/h N 2,8 C 10,5 C 2,8 km/h
09.04.2018 06:00 10,0 C 60 % 1007,9 hPa 0,0 l/m 0,1 km/h N 2,6 C 10,0 C 1,6 km/h
09.04.2018 07:00 10,2 C 68 % 1008,0 hPa 0,0 l/m 0,0 km/h N 4,6 C 10,2 C 0,0 km/h
09.04.2018 08:00 13,2 C 66 % 1007,6 hPa 0,0 l/m 0,1 km/h N 6,9 C 13,2 C 2,4 km/h
09.04.2018 09:00 17,2 C 53 % 1007,2 hPa 0,0 l/m 0,1 km/h N 7,5 C 17,2 C 3,2 km/h
09.04.2018 10:00 19,6 C 50 % 1007,2 hPa 0,0 l/m 0,2 km/h N 8,8 C 19,6 C 6,4 km/h
09.04.2018 11:00 21,7 C 43 % 1006,8 hPa 0,0 l/m 3,5 km/h N 8,5 C 21,7 C 12,9 km/h
09.04.2018 12:00 24,3 C 37 % 1006,5 hPa 0,0 l/m 5,1 km/h N 8,5 C 24,3 C 18,9 km/h
09.04.2018 13:00 25,2 C 34 % 1006,1 hPa 0,0 l/m 5,2 km/h N 8,0 C 25,2 C 19,7 km/h
09.04.2018 14:00 25,3 C 33 % 1005,8 hPa 0,0 l/m 5,1 km/h N 7,6 C 25,3 C 22,9 km/h
09.04.2018 15:00 25,0 C 32 % 1005,2 hPa 0,0 l/m 3,7 km/h N 7,0 C 25,0 C 17,3 km/h
09.04.2018 16:00 24,8 C 30 % 1004,9 hPa 0,0 l/m 5,4 km/h N 5,9 C 24,8 C 23,3 km/h
09.04.2018 17:00 24,0 C 32 % 1004,9 hPa 0,0 l/m 6,3 km/h N 6,1 C 23,9 C 26,2 km/h
09.04.2018 18:00 23,2 C 36 % 1004,6 hPa 0,0 l/m 4,1 km/h N 7,0 C 23,2 C 19,3 km/h
09.04.2018 19:00 21,8 C 39 % 1004,5 hPa 0,0 l/m 0,5 km/h N 7,3 C 21,8 C 4,8 km/h
09.04.2018 20:00 18,7 C 47 % 1004,7 hPa 0,0 l/m 0,0 km/h N 7,0 C 18,7 C 0,0 km/h
09.04.2018 21:00 17,4 C 53 % 1005,1 hPa 0,0 l/m 3,1 km/h N 7,6 C 17,4 C 19,3 km/h
09.04.2018 22:00 17,4 C 53 % 1005,0 hPa 0,0 l/m 0,6 km/h N 7,6 C 17,4 C 6,8 km/h
09.04.2018 23:00 15,5 C 57 % 1005,3 hPa 0,0 l/m 0,4 km/h N 7,0 C 15,5 C 4,0 km/h
10.04.2018 00:00 15,0 C 56 % 1005,9 hPa 0,0 l/m 0,2 km/h N 6,2 C 15,0 C 4,4 km/h
10.04.2018 01:00 14,2 C 59 % 1005,5 hPa 0,0 l/m 0,0 km/h N 6,2 C 14,2 C 0,4 km/h
10.04.2018 02:00 12,3 C 67 % 1005,3 hPa 0,0 l/m 0,0 km/h N 6,3 C 12,3 C 1,2 km/h
10.04.2018 03:00 12,1 C 73 % 1005,2 hPa 0,0 l/m 0,1 km/h N 7,3 C 12,1 C 2,0 km/h
10.04.2018 04:00 11,8 C 75 % 1005,0 hPa 0,0 l/m 0,0 km/h N 7,5 C 11,8 C 2,0 km/h
10.04.2018 05:00 11,3 C 75 % 1005,2 hPa 0,0 l/m 1,3 km/h N 7,1 C 11,3 C 6,8 km/h
10.04.2018 06:00 10,9 C 76 % 1005,3 hPa 0,0 l/m 0,2 km/h N 6,9 C 10,9 C 5,2 km/h
10.04.2018 07:00 11,1 C 76 % 1005,6 hPa 0,0 l/m 0,4 km/h N 7,0 C 11,1 C 4,4 km/h
10.04.2018 08:00 12,9 C 72 % 1005,7 hPa 0,0 l/m 1,8 km/h N 7,9 C 12,9 C 10,4 km/h
10.04.2018 09:00 16,0 C 62 % 1005,5 hPa 0,0 l/m 4,9 km/h N 8,6 C 16,0 C 15,7 km/h
10.04.2018 10:00 17,6 C 55 % 1005,8 hPa 0,0 l/m 4,9 km/h N 8,4 C 17,6 C 19,3 km/h
10.04.2018 11:00 17,1 C 57 % 1006,2 hPa 0,0 l/m 4,4 km/h N 8,4 C 17,1 C 20,9 km/h
10.04.2018 12:00 18,4 C 53 % 1006,0 hPa 0,0 l/m 5,0 km/h N 8,6 C 18,4 C 15,7 km/h
10.04.2018 13:00 18,0 C 56 % 1006,3 hPa 0,0 l/m 4,5 km/h N 9,0 C 18,0 C 16,9 km/h
10.04.2018 14:00 17,1 C 59 % 1006,2 hPa 0,0 l/m 2,2 km/h N 8,9 C 17,1 C 10,9 km/h
10.04.2018 15:00 17,4 C 60 % 1005,6 hPa 0,0 l/m 1,5 km/h N 9,5 C 17,4 C 10,5 km/h
10.04.2018 16:00 17,0 C 63 % 1005,2 hPa 0,0 l/m 1,0 km/h N 9,9 C 17,0 C 8,8 km/h
10.04.2018 17:00 17,0 C 63 % 1004,9 hPa 0,0 l/m 2,3 km/h N 9,9 C 17,0 C 10,1 km/h
10.04.2018 18:00 16,8 C 65 % 1004,7 hPa 0,0 l/m 1,0 km/h N 10,2 C 16,8 C 8,0 km/h
10.04.2018 19:00 16,1 C 67 % 1004,7 hPa 0,0 l/m 0,2 km/h N 9,9 C 16,1 C 3,6 km/h
10.04.2018 20:00 15,1 C 68 % 1004,7 hPa 0,0 l/m 0,0 km/h N 9,2 C 15,1 C 0,8 km/h
10.04.2018 21:00 13,7 C 70 % 1004,8 hPa 0,0 l/m 0,0 km/h N 8,3 C 13,7 C 1,2 km/h
10.04.2018 22:00 13,1 C 69 % 1004,5 hPa 0,0 l/m 0,1 km/h N 7,5 C 13,1 C 3,6 km/h
10.04.2018 23:00 11,6 C 71 % 1004,6 hPa 0,0 l/m 0,0 km/h N 6,5 C 11,6 C 0,0 km/h
11.04.2018 00:00 10,2 C 74 % 1004,8 hPa 0,0 l/m 0,0 km/h N 5,8 C 10,2 C 0,0 km/h
11.04.2018 01:00 8,8 C 77 % 1005,0 hPa 0,0 l/m 0,0 km/h N 5,0 C 8,8 C 0,0 km/h
11.04.2018 02:00 8,0 C 80 % 1005,0 hPa 0,0 l/m 0,0 km/h N 4,7 C 8,0 C 0,0 km/h
11.04.2018 03:00 7,4 C 82 % 1005,0 hPa 0,0 l/m 0,0 km/h N 4,4 C 7,4 C 0,0 km/h
11.04.2018 04:00 6,9 C 82 % 1005,2 hPa 0,0 l/m 0,0 km/h N 4,0 C 6,9 C 0,0 km/h
11.04.2018 05:00 6,5 C 83 % 1005,6 hPa 0,0 l/m 0,0 km/h N 3,7 C 6,5 C 1,2 km/h
11.04.2018 06:00 6,7 C 83 % 1006,3 hPa 0,0 l/m 0,0 km/h N 4,0 C 6,7 C 0,0 km/h
11.04.2018 07:00 6,4 C 83 % 1007,0 hPa 0,0 l/m 0,0 km/h N 3,8 C 6,4 C 0,4 km/h
11.04.2018 08:00 9,0 C 83 % 1007,5 hPa 0,0 l/m 0,1 km/h N 6,1 C 9,0 C 2,0 km/h
11.04.2018 09:00 13,1 C 77 % 1007,4 hPa 0,0 l/m 0,2 km/h N 9,0 C 13,1 C 5,2 km/h
11.04.2018 10:00 15,5 C 68 % 1007,8 hPa 0,0 l/m 0,0 km/h N 9,6 C 15,5 C 2,0 km/h
11.04.2018 11:00 16,9 C 63 % 1008,1 hPa 0,0 l/m 0,1 km/h N 9,7 C 16,9 C 4,0 km/h
11.04.2018 12:00 18,6 C 55 % 1007,7 hPa 0,0 l/m 0,2 km/h N 9,5 C 18,6 C 5,2 km/h
11.04.2018 13:00 19,5 C 52 % 1007,3 hPa 0,0 l/m 0,6 km/h N 9,3 C 19,5 C 9,6 km/h
11.04.2018 14:00 22,0 C 43 % 1006,5 hPa 0,0 l/m 1,5 km/h N 8,8 C 22,0 C 11,3 km/h
11.04.2018 15:00 22,5 C 42 % 1005,9 hPa 0,0 l/m 1,7 km/h N 8,9 C 22,5 C 9,3 km/h
11.04.2018 16:00 21,8 C 47 % 1005,7 hPa 0,0 l/m 2,2 km/h N 10,0 C 21,8 C 10,5 km/h
11.04.2018 17:00 21,1 C 49 % 1005,7 hPa 0,0 l/m 2,3 km/h N 9,9 C 21,1 C 12,9 km/h
11.04.2018 18:00 20,0 C 50 % 1006,1 hPa 0,0 l/m 3,0 km/h N 9,4 C 20,0 C 12,5 km/h
11.04.2018 19:00 18,5 C 52 % 1006,6 hPa 0,0 l/m 3,3 km/h N 8,5 C 18,5 C 14,1 km/h
11.04.2018 20:00 17,5 C 54 % 1007,3 hPa 0,0 l/m 2,8 km/h N 8,0 C 17,5 C 15,3 km/h
11.04.2018 21:00 16,5 C 57 % 1007,7 hPa 0,0 l/m 0,8 km/h N 7,8 C 16,5 C 7,6 km/h
11.04.2018 22:00 15,4 C 60 % 1007,6 hPa 0,0 l/m 0,0 km/h N 7,7 C 15,4 C 1,2 km/h
11.04.2018 23:00 14,0 C 64 % 1007,6 hPa 0,0 l/m 0,0 km/h N 7,3 C 14,0 C 0,0 km/h
12.04.2018 00:00 12,5 C 68 % 1007,8 hPa 0,0 l/m 0,0 km/h N 6,8 C 12,5 C 0,0 km/h
12.04.2018 01:00 10,9 C 75 % 1007,5 hPa 0,0 l/m 0,0 km/h N 6,5 C 10,9 C 0,4 km/h
12.04.2018 02:00 9,9 C 77 % 1007,1 hPa 0,0 l/m 0,0 km/h N 6,0 C 9,9 C 0,0 km/h
12.04.2018 03:00 9,1 C 79 % 1007,0 hPa 0,0 l/m 0,0 km/h N 5,7 C 9,1 C 0,0 km/h
12.04.2018 04:00 8,7 C 81 % 1006,7 hPa 0,0 l/m 0,0 km/h N 5,5 C 8,7 C 0,0 km/h
12.04.2018 05:00 8,6 C 82 % 1006,8 hPa 0,0 l/m 0,0 km/h N 5,6 C 8,6 C 0,0 km/h
12.04.2018 06:00 8,8 C 82 % 1006,8 hPa 0,0 l/m 0,0 km/h N 5,9 C 8,8 C 0,0 km/h
12.04.2018 07:00 9,8 C 82 % 1006,9 hPa 0,0 l/m 0,0 km/h N 6,9 C 9,8 C 0,0 km/h
12.04.2018 08:00 12,9 C 81 % 1006,9 hPa 0,0 l/m 0,0 km/h N 9,6 C 12,9 C 1,6 km/h
12.04.2018 09:00 17,6 C 66 % 1006,5 hPa 0,0 l/m 0,3 km/h N 11,1 C 17,6 C 3,6 km/h
12.04.2018 10:00 21,0 C 57 % 1006,0 hPa 0,0 l/m 0,3 km/h N 12,2 C 21,0 C 5,6 km/h
12.04.2018 11:00 22,3 C 54 % 1006,0 hPa 0,0 l/m 0,6 km/h N 12,4 C 22,3 C 6,8 km/h
12.04.2018 12:00 23,4 C 52 % 1005,6 hPa 0,0 l/m 2,2 km/h N 13,0 C 23,4 C 12,1 km/h
12.04.2018 13:00 24,3 C 47 % 1005,4 hPa 0,0 l/m 2,7 km/h N 12,2 C 24,3 C 12,5 km/h
12.04.2018 14:00 24,7 C 39 % 1005,1 hPa 0,0 l/m 4,5 km/h N 9,8 C 24,7 C 16,1 km/h
12.04.2018 15:00 24,1 C 41 % 1005,0 hPa 0,0 l/m 4,1 km/h N 9,9 C 24,1 C 16,1 km/h
12.04.2018 16:00 24,0 C 40 % 1004,9 hPa 0,0 l/m 4,1 km/h N 9,6 C 24,0 C 15,7 km/h
12.04.2018 17:00 23,3 C 43 % 1005,0 hPa 0,0 l/m 3,8 km/h N 9,8 C 23,3 C 18,5 km/h
12.04.2018 18:00 21,6 C 50 % 1005,3 hPa 0,0 l/m 3,7 km/h N 10,8 C 21,6 C 18,1 km/h
12.04.2018 19:00 19,7 C 54 % 1005,6 hPa 0,0 l/m 2,7 km/h N 10,2 C 19,7 C 12,9 km/h
12.04.2018 20:00 18,5 C 59 % 1005,7 hPa 0,0 l/m 0,3 km/h N 10,2 C 18,5 C 5,2 km/h
12.04.2018 21:00 16,9 C 64 % 1005,5 hPa 0,0 l/m 0,0 km/h N 9,9 C 16,9 C 0,0 km/h
12.04.2018 22:00 16,0 C 67 % 1005,5 hPa 0,0 l/m 0,0 km/h N 9,8 C 16,0 C 1,2 km/h
12.04.2018 23:00 15,6 C 68 % 1005,5 hPa 0,0 l/m 0,0 km/h N 9,6 C 15,6 C 0,0 km/h
13.04.2018 00:00 14,3 C 73 % 1005,2 hPa 0,0 l/m 0,0 km/h N 9,4 C 14,3 C 0,0 km/h
13.04.2018 01:00 14,0 C 77 % 1005,3 hPa 0,0 l/m 0,0 km/h N 10,0 C 14,0 C 0,8 km/h
13.04.2018 02:00 15,1 C 77 % 1005,6 hPa 0,0 l/m 0,4 km/h N 11,1 C 15,1 C 4,0 km/h
13.04.2018 03:00 14,7 C 80 % 1005,1 hPa 0,0 l/m 0,0 km/h N 11,2 C 14,7 C 1,6 km/h
13.04.2018 04:00 14,0 C 81 % 1004,9 hPa 0,0 l/m 0,0 km/h N 10,8 C 14,0 C 0,8 km/h
13.04.2018 05:00 13,4 C 82 % 1005,0 hPa 0,0 l/m 0,0 km/h N 10,4 C 13,4 C 1,6 km/h
13.04.2018 06:00 13,2 C 82 % 1005,3 hPa 0,0 l/m 0,0 km/h N 10,2 C 13,2 C 3,6 km/h
13.04.2018 07:00 13,6 C 82 % 1006,1 hPa 0,0 l/m 0,2 km/h N 10,6 C 13,6 C 4,8 km/h
13.04.2018 08:00 14,4 C 81 % 1006,4 hPa 0,0 l/m 1,4 km/h N 11,1 C 14,4 C 8,9 km/h
13.04.2018 09:00 16,4 C 72 % 1006,8 hPa 0,0 l/m 1,8 km/h N 11,2 C 16,4 C 12,1 km/h
13.04.2018 10:00 18,8 C 62 % 1006,9 hPa 0,0 l/m 1,6 km/h N 11,3 C 18,8 C 9,3 km/h
13.04.2018 11:00 20,4 C 55 % 1006,7 hPa 0,0 l/m 3,3 km/h N 11,0 C 20,4 C 12,1 km/h
13.04.2018 12:00 21,7 C 50 % 1006,7 hPa 0,0 l/m 4,3 km/h N 10,8 C 21,7 C 18,1 km/h
13.04.2018 13:00 22,5 C 45 % 1006,8 hPa 0,0 l/m 3,7 km/h N 10,0 C 22,5 C 17,3 km/h
13.04.2018 14:00 22,9 C 41 % 1006,9 hPa 0,0 l/m 5,2 km/h N 8,7 C 22,9 C 20,9 km/h
13.04.2018 15:00 22,8 C 40 % 1007,5 hPa 0,0 l/m 5,6 km/h N 8,4 C 22,8 C 21,7 km/h
13.04.2018 16:00 22,3 C 37 % 1008,3 hPa 0,0 l/m 5,8 km/h N 7,0 C 22,3 C 24,5 km/h
13.04.2018 17:00 21,6 C 38 % 1009,0 hPa 0,0 l/m 5,4 km/h N 6,6 C 21,6 C 21,7 km/h
13.04.2018 18:00 20,7 C 37 % 1009,4 hPa 0,0 l/m 4,5 km/h N 5,5 C 20,7 C 18,9 km/h
13.04.2018 19:00 19,5 C 39 % 1010,1 hPa 0,0 l/m 2,9 km/h N 5,0 C 19,5 C 12,1 km/h
13.04.2018 20:00 17,7 C 43 % 1011,5 hPa 0,0 l/m 1,2 km/h N 4,9 C 17,7 C 7,2 km/h
13.04.2018 21:00 16,8 C 44 % 1012,6 hPa 0,0 l/m 2,3 km/h N 4,5 C 16,8 C 11,7 km/h
13.04.2018 22:00 15,9 C 48 % 1014,5 hPa 0,0 l/m 4,8 km/h N 4,9 C 15,4 C 14,5 km/h
13.04.2018 23:00 13,5 C 56 % 1015,5 hPa 0,0 l/m 0,0 km/h N 4,7 C 13,5 C 1,6 km/h
14.04.2018 00:00 10,8 C 65 % 1016,1 hPa 0,0 l/m 0,1 km/h N 4,4 C 10,8 C 2,8 km/h
14.04.2018 01:00 8,9 C 72 % 1017,0 hPa 0,0 l/m 0,0 km/h N 4,0 C 8,9 C 0,8 km/h
14.04.2018 02:00 7,7 C 76 % 1017,6 hPa 0,0 l/m 0,0 km/h N 3,7 C 7,7 C 0,8 km/h
14.04.2018 03:00 7,0 C 78 % 1018,3 hPa 0,0 l/m 0,0 km/h N 3,4 C 7,0 C 0,0 km/h
14.04.2018 04:00 6,7 C 79 % 1018,9 hPa 0,0 l/m 0,0 km/h N 3,3 C 6,7 C 0,4 km/h
14.04.2018 05:00 6,8 C 80 % 1019,3 hPa 0,0 l/m 0,0 km/h N 3,5 C 6,8 C 1,2 km/h
14.04.2018 06:00 6,0 C 80 % 1020,0 hPa 0,0 l/m 0,0 km/h N 2,9 C 6,0 C 0,0 km/h
14.04.2018 07:00 6,8 C 82 % 1021,0 hPa 0,0 l/m 0,0 km/h N 3,9 C 6,8 C 0,4 km/h
14.04.2018 08:00 9,6 C 79 % 1021,4 hPa 0,0 l/m 0,0 km/h N 6,1 C 9,6 C 1,2 km/h
14.04.2018 09:00 14,8 C 66 % 1021,7 hPa 0,0 l/m 0,0 km/h N 8,4 C 14,8 C 2,0 km/h
14.04.2018 10:00 18,1 C 53 % 1021,9 hPa 0,0 l/m 0,2 km/h N 8,4 C 18,1 C 4,4 km/h
14.04.2018 11:00 19,5 C 50 % 1021,8 hPa 0,0 l/m 0,2 km/h N 8,9 C 19,5 C 5,2 km/h
14.04.2018 12:00 20,3 C 47 % 1021,5 hPa 0,0 l/m 0,6 km/h N 8,6 C 20,3 C 8,9 km/h
14.04.2018 13:00 21,1 C 44 % 1021,2 hPa 0,0 l/m 0,2 km/h N 8,2 C 21,1 C 4,8 km/h
14.04.2018 14:00 22,0 C 42 % 1021,0 hPa 0,0 l/m 0,5 km/h N 8,6 C 22,0 C 6,4 km/h
14.04.2018 15:00 22,2 C 40 % 1020,3 hPa 0,0 l/m 0,6 km/h N 8,0 C 22,2 C 6,0 km/h
14.04.2018 16:00 21,2 C 39 % 1020,0 hPa 0,0 l/m 1,1 km/h N 6,7 C 21,2 C 8,4 km/h
14.04.2018 17:00 20,8 C 40 % 1019,6 hPa 0,0 l/m 0,3 km/h N 6,7 C 20,8 C 4,0 km/h
14.04.2018 18:00 19,8 C 42 % 1019,4 hPa 0,0 l/m 0,1 km/h N 6,6 C 19,8 C 4,0 km/h
14.04.2018 19:00 18,6 C 47 % 1019,4 hPa 0,0 l/m 0,0 km/h N 7,1 C 18,6 C 1,6 km/h
14.04.2018 20:00 15,9 C 55 % 1019,7 hPa 0,0 l/m 0,0 km/h N 6,8 C 15,9 C 0,0 km/h
14.04.2018 21:00 13,1 C 64 % 1020,0 hPa 0,0 l/m 0,0 km/h N 6,5 C 13,1 C 0,0 km/h
14.04.2018 22:00 11,5 C 70 % 1019,9 hPa 0,0 l/m 0,0 km/h N 6,3 C 11,5 C 0,0 km/h
14.04.2018 23:00 10,2 C 75 % 1019,5 hPa 0,0 l/m 0,0 km/h N 6,0 C 10,2 C 0,0 km/h
15.04.2018 00:00 9,4 C 77 % 1019,1 hPa 0,0 l/m 0,0 km/h N 5,6 C 9,4 C 0,0 km/h
15.04.2018 01:00 8,8 C 80 % 1018,3 hPa 0,0 l/m 0,0 km/h N 5,5 C 8,8 C 0,0 km/h
15.04.2018 02:00 9,9 C 81 % 1017,7 hPa 0,0 l/m 0,0 km/h N 6,8 C 9,9 C 1,6 km/h
15.04.2018 03:00 11,4 C 76 % 1017,1 hPa 0,0 l/m 0,0 km/h N 7,3 C 11,4 C 0,0 km/h
15.04.2018 04:00 10,0 C 75 % 1016,8 hPa 0,0 l/m 0,0 km/h N 5,7 C 10,0 C 0,0 km/h
15.04.2018 05:00 8,7 C 79 % 1016,7 hPa 0,0 l/m 0,0 km/h N 5,2 C 8,7 C 0,0 km/h
15.04.2018 06:00 8,2 C 81 % 1016,7 hPa 0,0 l/m 0,0 km/h N 5,0 C 8,2 C 0,0 km/h
15.04.2018 07:00 8,6 C 82 % 1016,7 hPa 0,0 l/m 0,0 km/h N 5,8 C 8,6 C 0,0 km/h
15.04.2018 08:00 10,1 C 82 % 1016,7 hPa 0,0 l/m 0,0 km/h N 7,1 C 10,1 C 0,0 km/h
15.04.2018 09:00 13,1 C 81 % 1016,3 hPa 0,0 l/m 0,0 km/h N 10,0 C 13,1 C 0,8 km/h
15.04.2018 10:00 17,5 C 65 % 1015,9 hPa 0,0 l/m 0,1 km/h N 10,9 C 17,5 C 2,4 km/h
15.04.2018 11:00 19,8 C 59 % 1015,4 hPa 0,0 l/m 0,3 km/h N 11,5 C 19,8 C 4,8 km/h
15.04.2018 12:00 21,0 C 55 % 1014,7 hPa 0,0 l/m 0,3 km/h N 11,5 C 21,0 C 6,0 km/h
15.04.2018 13:00 21,0 C 56 % 1014,1 hPa 0,0 l/m 0,2 km/h N 11,8 C 21,0 C 4,4 km/h
15.04.2018 14:00 21,6 C 56 % 1013,1 hPa 0,0 l/m 0,5 km/h N 12,5 C 21,6 C 6,0 km/h
15.04.2018 15:00 22,7 C 54 % 1012,4 hPa 0,0 l/m 0,9 km/h N 12,9 C 22,7 C 8,0 km/h
15.04.2018 16:00 22,3 C 57 % 1011,9 hPa 0,0 l/m 0,8 km/h N 13,2 C 22,3 C 6,0 km/h
15.04.2018 17:00 21,5 C 59 % 1011,5 hPa 0,0 l/m 0,6 km/h N 13,2 C 21,5 C 6,4 km/h
15.04.2018 18:00 21,0 C 60 % 1011,3 hPa 0,0 l/m 1,0 km/h N 12,9 C 21,0 C 8,0 km/h
15.04.2018 19:00 20,3 C 63 % 1011,0 hPa 0,0 l/m 0,1 km/h N 12,9 C 20,3 C 3,6 km/h
15.04.2018 20:00 19,4 C 65 % 1011,4 hPa 0,0 l/m 0,1 km/h N 12,7 C 19,4 C 2,4 km/h
15.04.2018 21:00 18,0 C 68 % 1011,4 hPa 0,0 l/m 0,0 km/h N 11,9 C 18,0 C 0,0 km/h
15.04.2018 22:00 16,7 C 74 % 1010,8 hPa 0,0 l/m 0,0 km/h N 12,0 C 16,7 C 0,4 km/h
15.04.2018 23:00 16,4 C 76 % 1010,8 hPa 0,0 l/m 0,0 km/h N 12,1 C 16,4 C 0,0 km/h
Min-Datum _ 14.04.18 09.04.18 09.04.18 - 09.04.18 - 09.04.18 14.04.18 09.04.18
_ Min-Zeit 06:30 16:00 19:00 - 00:00 - 06:15 06:30 00:00
Minimum _ 5,8 C 29 % 1004,4 hPa - 0,0 km/h - 2,5 C 5,8 C 0,0 km/h
Max-Datum _ 09.04.18 11.04.18 14.04.18 09.04.18 13.04.18 - 15.04.18 09.04.18 09.04.18
_ Max-Zeit 14:30 05:00 11:15 00:00 22:00 - 16:30 14:15 17:00
Maximum _ 25,7 C 83 % 1022,0 hPa 0,0 l/m 11,0 km/h
N
- 13,6 C 25,6 C 32,2 km/h
N
Durchschnitt _ 15,9 C 61 % 1009,5 hPa #0,0 l/m 1,1 km/h N 7,9 C 15,9 C 6,3 km/h